Time;durP1;ratioP1;P1;durP2;ratioP2;P2;SDS_P1;SDS_P2;PMS_P1;PMS_P2;Temp;Humidity;BMP_temperature;BMP_pressure;BME280_temperature;BME280_humidity;BME280_pressure;Samples;Min_cycle;Max_cycle;Signal;HPM_P1;HPM_P2
2022/12/12 00:01:27;;;;;;;4.40;1.42;;;20.20;99.90;;;;;;5084633;28;20218;-79
2022/12/12 00:03:58;;;;;;;5.40;1.65;;;20.10;99.90;;;;;;5085285;28;20624;-79
2022/12/12 00:06:29;;;;;;;3.55;1.60;;;20.20;99.90;;;;;;5084388;28;20232;-78
2022/12/12 00:09:00;;;;;;;5.55;1.42;;;20.30;99.90;;;;;;5082844;28;20201;-78
2022/12/12 00:11:32;;;;;;;4.72;1.67;;;20.50;99.90;;;;;;5084099;28;20679;-78
2022/12/12 00:14:05;;;;;;;4.22;1.67;;;20.80;99.90;;;;;;5087194;28;20245;-80
2022/12/12 00:16:36;;;;;;;6.22;1.70;;;21.10;99.90;;;;;;5085102;28;20195;-79
2022/12/12 00:19:06;;;;;;;5.07;1.50;;;21.40;99.90;;;;;;5082975;28;20184;-81
2022/12/12 00:21:37;;;;;;;3.42;1.50;;;21.50;99.90;;;;;;5081462;28;20220;-81
2022/12/12 00:24:08;;;;;;;5.20;1.70;;;21.40;99.90;;;;;;5083686;28;20197;-80
2022/12/12 00:26:39;;;;;;;3.63;1.55;;;21.30;99.90;;;;;;5082963;28;20695;-79
2022/12/12 00:29:13;;;;;;;3.15;1.35;;;21.30;99.90;;;;;;5081029;28;20193;-78
2022/12/12 00:31:44;;;;;;;4.05;1.58;;;21.40;99.90;;;;;;5083395;28;20211;-79
2022/12/12 00:34:15;;;;;;;5.35;1.52;;;21.50;99.90;;;;;;5083525;28;20273;-78
2022/12/12 00:36:46;;;;;;;3.35;1.40;;;21.50;99.90;;;;;;5078790;28;20233;-78
2022/12/12 00:39:16;;;;;;;5.22;1.40;;;21.40;99.90;;;;;;5080426;28;20207;-77
2022/12/12 00:41:47;;;;;;;4.15;1.40;;;21.40;99.90;;;;;;5083905;28;20185;-78
2022/12/12 00:44:20;;;;;;;4.28;1.40;;;21.30;99.90;;;;;;5083621;28;20200;-79
2022/12/12 00:46:51;;;;;;;5.68;1.33;;;21.30;99.90;;;;;;5085159;28;20193;-78
2022/12/12 00:49:22;;;;;;;4.43;1.40;;;21.20;99.90;;;;;;5087690;28;20196;-78
2022/12/12 00:51:53;;;;;;;4.82;1.48;;;21.30;99.90;;;;;;5088847;28;20532;-78
2022/12/12 00:54:24;;;;;;;6.60;1.40;;;21.30;99.90;;;;;;5088954;28;20203;-82
2022/12/12 00:56:55;;;;;;;2.25;1.38;;;21.40;99.90;;;;;;5094185;28;20184;-81
2022/12/12 00:59:28;;;;;;;4.40;1.73;;;21.40;99.90;;;;;;5093293;28;20192;-78
2022/12/12 01:01:59;;;;;;;4.22;1.40;;;21.30;99.90;;;;;;5094865;28;20374;-78
2022/12/12 01:04:29;;;;;;;3.33;1.20;;;21.30;99.90;;;;;;5090525;28;20196;-78
2022/12/12 01:07:00;;;;;;;4.03;1.85;;;21.20;99.90;;;;;;5088603;28;20192;-79
2022/12/12 01:09:31;;;;;;;5.93;1.50;;;21.10;99.90;;;;;;5093702;28;20218;-77
2022/12/12 01:12:02;;;;;;;7.40;1.80;;;21.00;99.90;;;;;;5083564;28;20184;-83
2022/12/12 01:14:36;;;;;;;4.90;1.80;;;21.10;99.90;;;;;;5088393;28;20186;-79
2022/12/12 01:17:06;;;;;;;5.95;1.40;;;21.20;99.90;;;;;;5075116;28;20189;-80
2022/12/12 01:19:37;;;;;;;5.30;1.30;;;21.20;99.90;;;;;;5084380;28;20192;-78
2022/12/12 01:22:08;;;;;;;6.13;2.13;;;21.20;99.90;;;;;;5094637;28;20210;-78
2022/12/12 01:24:39;;;;;;;3.88;1.48;;;21.20;99.90;;;;;;5074237;28;20283;-77
2022/12/12 01:27:10;;;;;;;3.03;1.50;;;21.30;99.90;;;;;;5083109;28;20223;-77
2022/12/12 01:29:42;;;;;;;2.58;1.23;;;21.60;99.90;;;;;;5076290;28;20193;-77
2022/12/12 01:32:13;;;;;;;4.07;1.40;;;21.60;99.90;;;;;;5078928;28;20188;-77
2022/12/12 01:34:44;;;;;;;4.18;1.38;;;21.80;99.90;;;;;;5094352;28;20195;-77
2022/12/12 01:37:15;;;;;;;2.95;1.27;;;22.00;99.90;;;;;;5093768;28;20228;-77
2022/12/12 01:39:46;;;;;;;3.65;1.20;;;22.10;99.90;;;;;;5094228;28;20200;-77
2022/12/12 01:42:17;;;;;;;3.17;1.00;;;22.10;99.90;;;;;;5079340;28;20269;-76
2022/12/12 01:44:52;;;;;;;3.15;1.20;;;22.10;99.90;;;;;;5082147;28;20192;-76
2022/12/12 01:47:24;;;;;;;4.05;1.10;;;22.10;99.90;;;;;;5092857;28;20195;-78
2022/12/12 01:49:59;;;;;;;5.00;1.17;;;22.00;99.90;;;;;;5093837;28;20632;-77
2022/12/12 01:52:33;;;;;;;4.88;1.17;;;22.00;99.90;;;;;;5093786;28;20195;-77
2022/12/12 01:55:07;;;;;;;2.50;1.13;;;22.00;99.90;;;;;;5093549;28;20199;-77
2022/12/12 01:57:41;;;;;;;3.13;1.13;;;22.10;99.90;;;;;;5093376;28;20634;-77
2022/12/12 02:00:15;;;;;;;3.63;1.15;;;22.20;99.90;;;;;;5092975;28;20204;-77
2022/12/12 02:02:47;;;;;;;5.00;1.23;;;22.40;99.90;;;;;;5090421;28;20655;-78
2022/12/12 02:05:22;;;;;;;3.25;1.27;;;22.40;99.90;;;;;;5090574;28;20196;-77
2022/12/12 02:07:53;;;;;;;2.15;1.00;;;22.50;99.90;;;;;;5091892;28;20227;-78
2022/12/12 02:10:24;;;;;;;4.43;0.95;;;22.50;99.90;;;;;;5092134;28;20560;-78
2022/12/12 02:13:01;;;;;;;1.63;0.88;;;22.50;99.90;;;;;;5092308;28;20291;-77
2022/12/12 02:15:41;;;;;;;3.65;1.88;;;22.50;99.90;;;;;;5091423;28;20200;-77
2022/12/12 02:18:17;;;;;;;2.20;0.70;;;22.60;99.90;;;;;;5091520;28;20188;-79
2022/12/12 02:20:59;;;;;;;2.90;0.70;;;22.70;99.90;;;;;;5078500;28;20211;-78
2022/12/12 02:24:16;;;;;;;0.80;0.60;;;22.90;99.90;;;;;;5089212;28;20207;-78
2022/12/12 02:27:21;;;;;;;1.95;0.70;;;23.20;99.90;;;;;;5082083;28;20225;-77
2022/12/12 02:30:14;;;;;;;2.88;0.55;;;23.40;99.90;;;;;;5073545;28;20203;-78
2022/12/12 02:33:20;;;;;;;1.00;0.50;;;23.40;99.90;;;;;;5077526;28;20193;-78
2022/12/12 02:36:03;;;;;;;1.33;0.47;;;23.80;99.90;;;;;;5086635;28;20222;-79
2022/12/12 02:38:41;;;;;;;0.75;0.52;;;24.10;99.90;;;;;;5092470;28;20255;-80
2022/12/12 02:41:20;;;;;;;2.95;0.50;;;24.20;99.90;;;;;;5081483;28;20243;-80
2022/12/12 02:44:00;;;;;;;1.10;0.50;;;24.30;99.90;;;;;;5090769;28;20238;-79
2022/12/12 02:46:35;;;;;;;4.57;1.10;;;24.40;99.90;;;;;;5092407;28;20200;-81
2022/12/12 02:49:11;;;;;;;0.80;0.63;;;24.30;99.90;;;;;;5093594;28;20188;-82
2022/12/12 02:51:43;;;;;;;1.77;0.70;;;24.30;99.90;;;;;;5090692;28;20200;-84
2022/12/12 02:54:18;;;;;;;2.65;0.50;;;24.30;99.90;;;;;;5092001;28;20210;-82
2022/12/12 02:56:53;;;;;;;0.70;0.22;;;24.30;99.90;;;;;;5092341;28;20196;-83
2022/12/12 02:59:27;;;;;;;0.68;0.30;;;24.30;99.90;;;;;;5092241;28;20565;-87
2022/12/12 03:02:22;;;;;;;1.63;0.40;;;24.20;99.90;;;;;;5091330;28;20585;-81
2022/12/12 03:08:12;;;;;;;0.88;0.60;;;23.90;99.90;;;;;;5093531;28;20245;-85
2022/12/12 03:10:55;;;;;;;1.45;0.40;;;24.00;99.90;;;;;;5092411;28;20203;-84
2022/12/12 03:13:35;;;;;;;0.93;0.40;;;24.30;99.90;;;;;;5096822;28;20196;-80
2022/12/12 03:16:19;;;;;;;2.28;1.30;;;24.50;99.90;;;;;;5090538;28;20191;-84
2022/12/12 03:18:59;;;;;;;2.15;0.57;;;24.60;99.90;;;;;;5092765;28;20273;-82
2022/12/12 03:21:40;;;;;;;2.72;0.50;;;25.00;99.90;;;;;;5090527;28;20220;-82
2022/12/12 03:24:17;;;;;;;1.90;0.45;;;25.50;99.90;;;;;;5086707;28;20194;-84
2022/12/12 03:26:54;;;;;;;1.00;0.50;;;25.90;99.90;;;;;;5089808;28;20303;-83
2022/12/12 03:29:29;;;;;;;1.40;0.50;;;26.30;99.90;;;;;;5078608;28;20195;-84
2022/12/12 03:32:06;;;;;;;1.15;0.50;;;26.40;99.90;;;;;;5093798;28;20196;-79
2022/12/12 03:34:41;;;;;;;2.00;0.60;;;26.50;99.90;;;;;;5095994;28;20188;-85
2022/12/12 03:37:17;;;;;;;0.75;0.50;;;26.50;99.90;;;;;;5093939;28;20219;-86
2022/12/12 03:39:51;;;;;;;2.05;0.70;;;26.60;99.90;;;;;;5091414;28;20184;-84
2022/12/12 03:42:26;;;;;;;1.92;0.60;;;26.70;99.90;;;;;;5084673;28;20211;-82
2022/12/12 03:45:02;;;;;;;2.42;0.60;;;26.80;99.90;;;;;;5086222;28;20670;-87
2022/12/12 03:47:37;;;;;;;2.40;0.50;;;26.70;99.90;;;;;;5074893;28;20271;-88
2022/12/12 03:50:12;;;;;;;1.55;0.50;;;26.70;99.90;;;;;;5089414;28;20195;-78
2022/12/12 03:52:49;;;;;;;1.83;0.70;;;26.80;99.90;;;;;;5095648;28;20228;-78
2022/12/12 03:55:26;;;;;;;3.92;0.90;;;26.90;99.90;;;;;;5094956;28;20196;-84
2022/12/12 03:58:01;;;;;;;2.13;0.98;;;26.90;99.90;;;;;;5095438;28;20200;-84
2022/12/12 04:00:36;;;;;;;6.38;0.98;;;26.90;99.90;;;;;;5096286;28;20184;-78
2022/12/12 04:03:16;;;;;;;1.73;0.80;;;26.60;99.90;;;;;;5096581;28;20248;-81
2022/12/12 04:08:39;;;;;;;1.10;0.60;;;26.20;99.90;;;;;;5087064;28;20195;-86
2022/12/12 04:14:42;;;;;;;1.48;0.60;;;25.90;99.90;;;;;;5095413;28;20550;-81
2022/12/12 04:17:16;;;;;;;2.70;0.90;;;25.80;99.90;;;;;;5095866;28;20347;-82
2022/12/12 04:23:19;;;;;;;3.95;0.90;;;25.90;99.90;;;;;;5051762;28;20331;-87
2022/12/12 04:29:07;;;;;;;3.42;1.05;;;26.10;99.90;;;;;;5091495;28;20200;-84
2022/12/12 04:31:42;;;;;;;3.08;1.00;;;26.30;99.90;;;;;;5091656;28;20191;-85
2022/12/12 04:34:17;;;;;;;3.85;1.77;;;26.40;99.90;;;;;;5086728;28;20619;-80
2022/12/12 04:36:49;;;;;;;5.13;0.80;;;26.30;99.90;;;;;;5090764;28;20231;-82
2022/12/12 04:39:22;;;;;;;5.55;1.50;;;26.20;99.90;;;;;;5094450;28;20209;-84
2022/12/12 04:41:56;;;;;;;4.50;0.70;;;26.40;99.90;;;;;;5087892;28;20215;-88
2022/12/12 04:44:28;;;;;;;4.63;0.90;;;26.50;99.90;;;;;;5091421;28;20543;-83
2022/12/12 04:47:00;;;;;;;2.40;0.70;;;26.50;99.90;;;;;;5092410;28;20196;-84
2022/12/12 04:49:35;;;;;;;2.65;0.77;;;26.70;99.90;;;;;;5084189;28;20200;-83
2022/12/12 04:52:09;;;;;;;1.85;0.73;;;26.80;99.90;;;;;;5082443;28;20195;-82
2022/12/12 04:54:46;;;;;;;1.98;0.60;;;26.90;99.90;;;;;;5092884;28;20200;-86
2022/12/12 04:57:25;;;;;;;2.08;0.75;;;26.80;99.90;;;;;;5091203;28;20196;-83
2022/12/12 04:59:56;;;;;;;1.45;0.70;;;26.70;99.90;;;;;;5079889;28;20644;-86
2022/12/12 05:02:35;;;;;;;1.35;0.60;;;26.70;99.90;;;;;;5085019;28;20220;-86
2022/12/12 05:05:10;;;;;;;1.52;0.70;;;26.80;99.90;;;;;;5086674;28;20200;-89
2022/12/12 05:07:42;;;;;;;2.25;0.80;;;26.80;99.90;;;;;;5091320;28;20257;-81
2022/12/12 05:10:16;;;;;;;1.98;0.60;;;26.50;99.90;;;;;;5094490;28;20188;-81
2022/12/12 05:12:50;;;;;;;1.08;0.68;;;26.30;99.90;;;;;;5096108;28;20196;-79
2022/12/12 05:15:22;;;;;;;1.48;0.70;;;26.10;99.90;;;;;;5093049;28;20198;-84
2022/12/12 05:17:58;;;;;;;2.22;0.68;;;25.90;99.90;;;;;;5092552;28;20245;-85
2022/12/12 05:20:28;;;;;;;2.65;0.85;;;25.80;99.90;;;;;;5092342;28;20206;-87
2022/12/12 05:22:59;;;;;;;2.70;0.65;;;25.70;99.90;;;;;;5086964;28;20216;-88
2022/12/12 05:25:30;;;;;;;0.70;0.60;;;25.70;99.90;;;;;;5090941;28;20208;-87
2022/12/12 05:28:03;;;;;;;1.08;0.60;;;25.60;99.90;;;;;;5083578;28;20300;-86
2022/12/12 05:30:37;;;;;;;1.00;0.52;;;25.70;99.90;;;;;;5075545;28;20646;-88
2022/12/12 05:33:07;;;;;;;3.85;0.50;;;25.70;99.90;;;;;;5086249;28;20204;-85
2022/12/12 05:35:38;;;;;;;0.40;0.40;;;25.70;99.90;;;;;;5090213;28;20200;-86
2022/12/12 05:38:09;;;;;;;1.30;0.50;;;25.90;99.90;;;;;;5091193;28;20235;-80
2022/12/12 05:40:40;;;;;;;2.00;0.60;;;26.10;99.90;;;;;;5078910;28;20197;-87
2022/12/12 05:43:13;;;;;;;0.57;0.50;;;26.30;99.90;;;;;;5074860;28;20345;-80
2022/12/12 05:45:44;;;;;;;1.35;0.52;;;26.30;99.90;;;;;;5083838;28;20188;-79
2022/12/12 05:48:14;;;;;;;1.13;0.55;;;26.10;99.90;;;;;;5094255;28;20196;-80
2022/12/12 05:50:45;;;;;;;1.42;0.70;;;25.70;99.90;;;;;;5083874;28;20554;-85
2022/12/12 05:53:16;;;;;;;1.45;0.70;;;25.50;99.90;;;;;;5085895;28;20269;-81
2022/12/12 05:55:47;;;;;;;1.92;0.55;;;25.40;99.90;;;;;;5080660;28;20200;-90
2022/12/12 05:58:19;;;;;;;3.47;0.65;;;25.30;99.90;;;;;;5083350;28;20199;-79
2022/12/12 06:00:51;;;;;;;1.98;0.40;;;25.30;99.90;;;;;;5079926;28;20200;-88
2022/12/12 06:03:23;;;;;;;3.92;0.60;;;25.40;99.90;;;;;;5082751;28;20193;-80
2022/12/12 06:05:55;;;;;;;1.95;0.52;;;25.70;99.90;;;;;;5086824;28;20192;-85
2022/12/12 06:08:26;;;;;;;1.95;0.60;;;25.80;99.90;;;;;;5084828;28;20682;-89
2022/12/12 06:10:57;;;;;;;1.80;0.50;;;25.80;99.90;;;;;;5090540;28;20180;-88
2022/12/12 06:13:30;;;;;;;2.63;0.60;;;25.60;99.90;;;;;;5078178;28;20195;-83
2022/12/12 06:16:00;;;;;;;1.88;0.55;;;25.70;99.90;;;;;;5086292;28;20279;-87
2022/12/12 06:18:31;;;;;;;1.77;0.50;;;25.70;99.90;;;;;;5084381;28;20210;-85
2022/12/12 06:21:07;;;;;;;1.73;0.47;;;25.60;99.90;;;;;;5078004;28;20195;-80
2022/12/12 06:23:39;;;;;;;1.42;0.50;;;25.40;99.90;;;;;;5093439;28;20279;-80
2022/12/12 06:26:11;;;;;;;0.82;0.40;;;25.20;99.90;;;;;;5082094;28;20224;-86
2022/12/12 06:28:44;;;;;;;0.70;0.43;;;25.00;99.90;;;;;;5080943;28;20192;-85
2022/12/12 06:31:16;;;;;;;1.98;0.50;;;25.10;99.90;;;;;;5090071;28;20184;-82
2022/12/12 06:33:47;;;;;;;8.20;6.00;;;25.10;99.90;;;;;;5085508;28;20192;-82
2022/12/12 06:36:22;;;;;;;8.10;5.95;;;25.10;99.90;;;;;;5077665;28;20196;-86
2022/12/12 06:38:54;;;;;;;2.25;0.90;;;25.10;99.90;;;;;;5081849;28;20234;-84
2022/12/12 06:41:25;;;;;;;3.13;0.40;;;25.30;99.90;;;;;;5081655;28;20632;-77
2022/12/12 06:43:58;;;;;;;1.80;0.57;;;25.50;99.90;;;;;;5082782;28;20202;-84
2022/12/12 06:46:30;;;;;;;0.90;0.30;;;25.60;99.90;;;;;;5082843;28;20271;-88
2022/12/12 06:49:01;;;;;;;1.50;0.22;;;25.80;99.90;;;;;;5080086;28;20203;-79
2022/12/12 06:51:36;;;;;;;1.80;0.20;;;25.80;99.90;;;;;;5086724;28;20226;-77
2022/12/12 06:54:07;;;;;;;1.10;0.30;;;25.70;99.90;;;;;;5089209;28;20187;-82
2022/12/12 06:56:37;;;;;;;1.13;0.30;;;25.60;99.90;;;;;;5086152;28;20279;-82
2022/12/12 06:59:11;;;;;;;1.65;0.40;;;25.40;99.90;;;;;;5085052;28;20196;-79
2022/12/12 07:01:42;;;;;;;0.90;0.30;;;25.20;99.90;;;;;;5085184;28;20307;-80
2022/12/12 07:04:14;;;;;;;1.35;0.32;;;24.90;99.90;;;;;;5083257;28;20750;-85
2022/12/12 07:06:45;;;;;;;0.98;0.30;;;24.70;99.90;;;;;;5083081;28;20201;-83
2022/12/12 07:09:16;;;;;;;2.80;0.40;;;24.70;99.90;;;;;;5085758;28;20197;-82
2022/12/12 07:11:47;;;;;;;2.75;0.35;;;24.80;99.90;;;;;;5086575;28;20570;-86
2022/12/12 07:14:20;;;;;;;1.95;0.30;;;25.00;99.90;;;;;;5086825;28;20198;-82
2022/12/12 07:16:50;;;;;;;1.65;0.20;;;25.10;99.90;;;;;;5088638;28;20191;-80
2022/12/12 07:19:21;;;;;;;0.93;0.20;;;25.10;99.90;;;;;;5082357;28;20204;-80
2022/12/12 07:21:52;;;;;;;0.98;0.30;;;25.10;99.90;;;;;;5085553;28;20664;-78
2022/12/12 07:24:23;;;;;;;0.77;0.20;;;25.10;99.90;;;;;;5086125;28;20560;-85
2022/12/12 07:26:53;;;;;;;0.20;0.20;;;25.00;99.90;;;;;;5083319;28;20297;-79
2022/12/12 07:29:26;;;;;;;1.35;0.40;;;25.00;99.90;;;;;;5085474;28;20694;-81
2022/12/12 07:31:57;;;;;;;1.60;0.30;;;25.00;99.90;;;;;;5084343;28;20189;-79
2022/12/12 07:34:30;;;;;;;0.60;0.20;;;24.90;99.90;;;;;;5087633;28;20314;-83
2022/12/12 07:37:01;;;;;;;0.65;0.40;;;24.80;99.90;;;;;;5085879;28;20192;-83
2022/12/12 07:39:33;;;;;;;0.68;0.30;;;24.70;99.90;;;;;;5086814;28;20199;-79
2022/12/12 07:42:04;;;;;;;2.55;0.30;;;24.60;99.90;;;;;;5081674;28;20215;-84
2022/12/12 07:44:37;;;;;;;0.60;0.30;;;24.70;99.90;;;;;;5084563;28;20196;-79
2022/12/12 07:47:07;;;;;;;1.60;0.20;;;24.70;99.90;;;;;;5084319;28;20188;-81
2022/12/12 07:49:38;;;;;;;0.20;0.17;;;24.70;99.90;;;;;;5087066;28;20557;-79
2022/12/12 07:52:09;;;;;;;1.60;0.22;;;24.80;99.90;;;;;;5085737;28;20196;-82
2022/12/12 07:54:40;;;;;;;1.73;0.57;;;24.80;99.90;;;;;;5081912;28;20215;-82
2022/12/12 07:57:11;;;;;;;3.90;3.10;;;24.80;99.90;;;;;;5088135;28;20659;-80
2022/12/12 07:59:43;;;;;;;1.98;0.50;;;24.70;99.90;;;;;;5088888;28;20651;-79
2022/12/12 08:02:14;;;;;;;0.35;0.22;;;24.60;99.90;;;;;;5082964;28;20306;-81
2022/12/12 08:04:45;;;;;;;1.55;0.30;;;24.40;99.90;;;;;;5082597;28;20280;-80
2022/12/12 08:07:16;;;;;;;0.90;0.20;;;24.20;99.90;;;;;;5084901;28;20192;-82
2022/12/12 08:09:47;;;;;;;0.45;0.20;;;24.00;99.90;;;;;;5082680;28;20193;-80
2022/12/12 08:12:18;;;;;;;1.70;0.30;;;23.80;99.90;;;;;;5083057;28;20281;-82
2022/12/12 08:14:52;;;;;;;1.27;0.20;;;23.60;99.90;;;;;;5083346;28;20195;-82
2022/12/12 08:17:23;;;;;;;2.40;0.20;;;23.40;99.90;;;;;;5085654;28;20663;-82
2022/12/12 08:19:53;;;;;;;1.08;0.20;;;23.30;99.90;;;;;;5084980;28;20543;-81
2022/12/12 08:22:24;;;;;;;2.20;0.30;;;23.20;99.90;;;;;;5082914;28;20318;-85
2022/12/12 08:24:56;;;;;;;1.05;0.30;;;23.20;99.90;;;;;;5084561;28;20196;-82
2022/12/12 08:27:26;;;;;;;2.15;0.40;;;23.20;99.90;;;;;;5086146;28;20260;-81
2022/12/12 08:30:00;;;;;;;0.10;0.10;;;23.20;99.90;;;;;;5086827;28;20211;-86
2022/12/12 08:32:30;;;;;;;0.82;0.13;;;23.20;99.90;;;;;;5082386;28;20276;-81
2022/12/12 08:35:01;;;;;;;0.68;0.20;;;23.10;99.90;;;;;;5081733;28;20196;-82
2022/12/12 08:37:33;;;;;;;1.15;0.30;;;23.00;99.90;;;;;;5085278;28;21001;-80
2022/12/12 08:40:04;;;;;;;1.85;0.22;;;23.00;99.90;;;;;;5083041;28;20193;-85
2022/12/12 08:42:35;;;;;;;1.08;0.20;;;22.90;99.90;;;;;;5082443;28;20223;-80
2022/12/12 08:45:09;;;;;;;0.30;0.10;;;22.80;99.90;;;;;;5082478;28;20188;-85
2022/12/12 08:47:39;;;;;;;10.68;6.53;;;22.70;99.90;;;;;;5087422;28;20595;-81
2022/12/12 08:50:12;;;;;;;6.18;4.63;;;22.70;99.90;;;;;;5082239;28;20228;-81
2022/12/12 08:52:42;;;;;;;1.55;0.93;;;22.60;99.90;;;;;;5084567;28;20244;-81
2022/12/12 08:55:13;;;;;;;2.15;0.52;;;22.50;99.90;;;;;;5081999;28;20200;-82
2022/12/12 08:57:45;;;;;;;0.28;0.28;;;22.50;99.90;;;;;;5084643;28;20192;-82
2022/12/12 09:00:19;;;;;;;0.60;0.47;;;22.40;99.90;;;;;;5080770;28;20666;-87
2022/12/12 09:02:50;;;;;;;2.03;0.30;;;22.40;99.90;;;;;;5083816;28;20216;-82
2022/12/12 09:05:21;;;;;;;2.42;0.38;;;22.40;99.90;;;;;;5081804;28;20211;-82
2022/12/12 09:07:52;;;;;;;0.52;0.20;;;22.30;99.90;;;;;;5086010;28;20652;-84
2022/12/12 09:10:22;;;;;;;0.65;0.25;;;22.30;99.90;;;;;;5083042;28;20210;-82
2022/12/12 09:12:53;;;;;;;1.17;0.30;;;22.20;99.90;;;;;;5081769;28;20212;-83
2022/12/12 09:15:26;;;;;;;2.65;0.45;;;22.10;99.90;;;;;;5081716;28;20222;-82
2022/12/12 09:17:57;;;;;;;1.05;0.40;;;22.10;99.90;;;;;;5085589;28;20275;-80
2022/12/12 09:20:28;;;;;;;3.15;0.30;;;22.00;99.90;;;;;;5083629;28;20538;-81
2022/12/12 09:22:58;;;;;;;4.43;0.30;;;21.90;99.90;;;;;;5083020;28;20679;-80
2022/12/12 09:25:29;;;;;;;1.05;0.30;;;21.90;99.90;;;;;;5084824;28;20197;-81
2022/12/12 09:28:00;;;;;;;1.10;0.32;;;21.80;99.90;;;;;;5079897;28;20229;-81
2022/12/12 09:30:33;;;;;;;0.45;0.20;;;21.70;99.90;;;;;;5083089;28;20697;-81
2022/12/12 09:33:04;;;;;;;2.17;0.47;;;21.70;99.90;;;;;;5084798;28;20692;-84
2022/12/12 09:35:35;;;;;;;1.38;0.28;;;21.70;99.90;;;;;;5082090;28;20551;-85
2022/12/12 09:38:05;;;;;;;2.22;0.80;;;21.60;99.90;;;;;;5080045;28;20358;-84
2022/12/12 09:40:50;;;;;;;1.58;0.35;;;21.60;99.90;;;;;;5073914;28;20275;-81
2022/12/12 09:43:23;;;;;;;1.42;0.50;;;21.50;99.90;;;;;;5084630;28;20261;-82
2022/12/12 09:45:57;;;;;;;0.50;0.30;;;21.40;99.90;;;;;;5094244;28;20191;-85
2022/12/12 09:48:35;;;;;;;0.57;0.50;;;21.40;99.90;;;;;;5093820;28;20731;-88
2022/12/12 09:51:06;;;;;;;1.67;0.45;;;21.30;99.90;;;;;;5092696;28;20184;-85
2022/12/12 09:53:37;;;;;;;1.85;0.28;;;21.30;99.90;;;;;;5084995;28;20197;-83
2022/12/12 09:56:14;;;;;;;2.50;0.40;;;21.20;99.90;;;;;;5088958;28;20661;-82
2022/12/12 09:58:51;;;;;;;1.40;0.20;;;21.20;99.90;;;;;;5088056;28;20228;-81
2022/12/12 10:01:30;;;;;;;2.22;0.30;;;21.20;99.90;;;;;;5090423;28;20192;-87
2022/12/12 10:04:11;;;;;;;1.25;0.40;;;21.10;99.90;;;;;;5090535;28;20216;-83
2022/12/12 10:06:48;;;;;;;2.15;0.50;;;21.10;99.90;;;;;;5087918;28;20196;-86
2022/12/12 10:09:50;;;;;;;1.98;0.77;;;21.00;99.90;;;;;;5092881;28;20195;-84
2022/12/12 10:12:23;;;;;;;0.52;0.20;;;21.00;99.90;;;;;;5086331;28;20631;-84
2022/12/12 10:14:56;;;;;;;1.88;0.30;;;20.90;99.90;;;;;;5093650;28;20198;-81
2022/12/12 10:17:34;;;;;;;1.60;0.40;;;20.90;99.90;;;;;;5092429;28;20198;-84
2022/12/12 10:20:07;;;;;;;2.05;0.32;;;20.80;99.90;;;;;;5090972;28;20288;-83
2022/12/12 10:22:42;;;;;;;1.58;0.40;;;20.80;99.90;;;;;;5092583;28;20242;-81
2022/12/12 10:25:22;;;;;;;2.38;0.60;;;20.80;99.90;;;;;;5073421;28;20276;-81
2022/12/12 10:27:55;;;;;;;2.15;0.30;;;20.80;99.90;;;;;;5081173;28;20316;-81
2022/12/12 10:30:26;;;;;;;2.10;0.68;;;20.80;99.90;;;;;;5091865;28;20280;-83
2022/12/12 10:33:14;;;;;;;1.50;0.40;;;20.70;99.90;;;;;;5080033;28;20683;-82
2022/12/12 10:35:53;;;;;;;0.93;0.30;;;20.70;99.90;;;;;;5090519;28;20715;-84
2022/12/12 10:38:39;;;;;;;1.02;0.40;;;20.70;99.90;;;;;;5079474;28;20231;-81
2022/12/12 10:41:25;;;;;;;0.68;0.30;;;20.60;99.90;;;;;;5092688;28;20290;-82
2022/12/12 10:44:02;;;;;;;1.63;0.50;;;20.60;99.90;;;;;;5092467;28;20227;-80
2022/12/12 10:46:39;;;;;;;2.17;0.40;;;20.60;99.90;;;;;;5092403;28;20607;-82
2022/12/12 10:49:17;;;;;;;0.65;0.35;;;20.60;99.90;;;;;;5093175;28;20691;-78
2022/12/12 10:51:51;;;;;;;1.63;0.35;;;20.50;99.90;;;;;;5090000;28;20288;-83
2022/12/12 10:54:25;;;;;;;1.75;0.50;;;20.50;99.90;;;;;;5092377;28;20249;-85
2022/12/12 10:57:11;;;;;;;2.67;0.32;;;20.40;99.90;;;;;;5091019;28;20550;-83
2022/12/12 10:59:46;;;;;;;2.67;0.50;;;20.40;99.90;;;;;;5076407;28;20203;-83
2022/12/12 11:02:32;;;;;;;1.15;0.40;;;20.30;99.90;;;;;;5092081;28;20594;-82
2022/12/12 11:05:18;;;;;;;1.30;0.40;;;20.30;99.90;;;;;;5082694;28;20192;-82
2022/12/12 11:07:51;;;;;;;1.10;0.40;;;20.20;99.90;;;;;;5091278;28;20215;-82
2022/12/12 11:10:33;;;;;;;3.58;0.50;;;20.10;99.90;;;;;;5089119;28;20192;-81
2022/12/12 11:13:14;;;;;;;2.63;0.30;;;20.10;99.90;;;;;;5091304;28;20208;-81
2022/12/12 11:15:51;;;;;;;1.65;0.43;;;20.10;99.90;;;;;;5090248;28;20678;-81
2022/12/12 11:18:24;;;;;;;0.90;0.47;;;20.00;99.90;;;;;;5093054;28;20543;-86
2022/12/12 11:21:06;;;;;;;0.50;0.40;;;20.00;99.90;;;;;;5089083;28;20284;-82
2022/12/12 11:23:40;;;;;;;2.17;0.30;;;20.00;99.90;;;;;;5090040;28;20593;-85
2022/12/12 11:26:16;;;;;;;1.65;0.40;;;20.00;99.90;;;;;;5091097;28;20212;-82
2022/12/12 11:28:53;;;;;;;1.65;0.50;;;20.00;99.90;;;;;;5082423;28;20204;-76
2022/12/12 11:31:27;;;;;;;0.75;0.40;;;19.90;99.90;;;;;;5080675;28;20283;-83
2022/12/12 11:34:00;;;;;;;0.93;0.28;;;19.90;99.90;;;;;;5084989;28;20196;-85
2022/12/12 11:36:36;;;;;;;1.00;0.40;;;19.90;99.90;;;;;;5094721;28;20184;-83
2022/12/12 11:39:18;;;;;;;1.15;0.38;;;19.90;99.90;;;;;;5094984;28;20278;-84
2022/12/12 11:42:04;;;;;;;5.38;0.32;;;19.90;99.90;;;;;;5092961;28;20200;-79
2022/12/12 11:44:37;;;;;;;2.33;0.30;;;19.80;99.90;;;;;;5092123;28;20236;-82
2022/12/12 11:47:26;;;;;;;4.70;0.40;;;19.80;99.90;;;;;;5095100;28;20287;-82
2022/12/12 11:49:59;;;;;;;1.58;0.20;;;19.80;99.90;;;;;;5092660;28;20581;-82
2022/12/12 11:52:34;;;;;;;1.27;0.30;;;19.80;99.90;;;;;;5095775;28;20204;-82
2022/12/12 11:55:05;;;;;;;0.45;0.30;;;19.90;99.90;;;;;;5095003;28;20204;-77
2022/12/12 11:57:57;;;;;;;2.50;0.45;;;19.80;99.90;;;;;;5090544;28;20180;-80
2022/12/12 12:00:36;;;;;;;2.80;0.60;;;19.80;99.90;;;;;;5093987;28;20569;-82
2022/12/12 12:03:32;;;;;;;3.05;0.45;;;19.70;99.90;;;;;;5076033;28;20196;-79
2022/12/12 12:06:32;;;;;;;1.55;0.30;;;19.70;99.90;;;;;;5084987;28;20196;-84
2022/12/12 12:09:19;;;;;;;1.95;0.30;;;19.70;99.90;;;;;;5094178;28;20192;-79
2022/12/12 12:11:57;;;;;;;2.75;0.50;;;19.60;99.90;;;;;;5094265;28;20207;-81
2022/12/12 12:14:50;;;;;;;3.33;0.38;;;19.60;99.90;;;;;;5083639;28;20196;-77
2022/12/12 12:17:30;;;;;;;0.73;0.20;;;19.60;99.90;;;;;;5088864;28;20228;-76
2022/12/12 12:20:13;;;;;;;1.50;0.40;;;19.50;99.90;;;;;;5094261;28;20192;-77
2022/12/12 12:22:59;;;;;;;1.35;0.38;;;19.50;99.90;;;;;;5088410;28;20566;-77
2022/12/12 12:25:43;;;;;;;2.10;0.38;;;19.50;99.90;;;;;;5094173;28;20231;-82
2022/12/12 12:28:56;;;;;;;3.55;0.32;;;19.40;99.90;;;;;;5079996;28;20197;-81
2022/12/12 12:31:34;;;;;;;1.35;0.30;;;19.40;99.90;;;;;;4994007;28;20210;-81
2022/12/12 12:34:16;;;;;;;0.70;0.30;;;19.40;99.90;;;;;;5001977;28;20194;-80
2022/12/12 12:36:59;;;;;;;1.40;0.35;;;19.40;99.90;;;;;;5057213;28;20672;-79
2022/12/12 12:39:52;;;;;;;2.30;0.30;;;19.30;99.90;;;;;;5087722;28;20195;-80
2022/12/12 12:42:35;;;;;;;0.35;0.30;;;19.30;99.90;;;;;;5095081;28;20253;-78
2022/12/12 12:45:15;;;;;;;0.65;0.32;;;19.30;99.90;;;;;;5095313;28;20219;-79
2022/12/12 12:47:53;;;;;;;1.45;0.40;;;19.30;99.90;;;;;;5075402;28;20185;-78
2022/12/12 12:50:27;;;;;;;1.25;0.50;;;19.20;99.90;;;;;;5094403;28;20184;-78
2022/12/12 12:53:04;;;;;;;0.93;0.45;;;19.20;99.90;;;;;;5090654;28;20180;-79
2022/12/12 12:55:41;;;;;;;1.42;0.30;;;19.20;99.90;;;;;;5081825;28;20199;-79
2022/12/12 12:58:20;;;;;;;2.78;0.40;;;19.10;99.90;;;;;;5075676;28;20196;-80
2022/12/12 13:00:56;;;;;;;0.35;0.28;;;19.10;99.90;;;;;;5094807;28;20200;-79
2022/12/12 13:03:34;;;;;;;1.35;0.40;;;19.10;99.90;;;;;;5093194;28;20243;-80
2022/12/12 13:06:14;;;;;;;0.68;0.30;;;19.00;99.90;;;;;;5086771;28;20192;-78
2022/12/12 13:08:55;;;;;;;1.08;0.30;;;19.00;99.90;;;;;;5084361;28;20184;-79
2022/12/12 13:11:32;;;;;;;0.70;0.38;;;18.90;99.90;;;;;;5077208;28;20271;-79
2022/12/12 13:14:14;;;;;;;1.48;0.22;;;18.90;99.90;;;;;;5083750;28;20186;-80
2022/12/12 13:16:46;;;;;;;0.73;0.30;;;18.90;99.90;;;;;;5085571;28;20196;-79
2022/12/12 13:19:26;;;;;;;0.52;0.30;;;18.80;99.90;;;;;;5074321;28;20185;-79
2022/12/12 13:22:02;;;;;;;2.75;0.30;;;18.80;99.90;;;;;;5085482;28;20185;-80
2022/12/12 13:24:38;;;;;;;2.05;0.30;;;18.70;99.90;;;;;;5081952;28;20245;-79
2022/12/12 13:27:20;;;;;;;0.50;0.30;;;18.60;99.90;;;;;;5083268;28;20208;-80
2022/12/12 13:29:56;;;;;;;2.05;0.30;;;18.60;99.90;;;;;;5085419;28;20195;-79
2022/12/12 13:32:55;;;;;;;1.45;0.20;;;18.50;99.90;;;;;;5082029;28;20225;-79
2022/12/12 13:35:31;;;;;;;1.65;0.10;;;18.60;99.90;;;;;;5086144;28;20276;-79
2022/12/12 13:38:03;;;;;;;1.00;0.30;;;18.50;99.90;;;;;;5086006;28;20234;-79
2022/12/12 13:40:37;;;;;;;3.50;0.40;;;18.50;99.90;;;;;;5082406;28;20708;-79
2022/12/12 13:43:09;;;;;;;3.08;0.40;;;18.50;99.90;;;;;;5086995;28;20188;-80
2022/12/12 13:45:44;;;;;;;3.05;0.32;;;18.40;99.90;;;;;;5080543;28;20217;-79